sensor_id;sensor_type;location;lat;lon;timestamp;pressure;altitude;pressure_sealevel;temperature;humidity
8451;BME280;4262;50.980;13.892;2023-03-11T05:03:08;50279.03;;;-142.97;28.63
8451;BME280;4262;50.980;13.892;2023-03-11T05:05:36;50325.84;;;-142.97;28.29
8451;BME280;4262;50.980;13.892;2023-03-11T05:08:03;50277.09;;;-142.97;29.15
8451;BME280;4262;50.980;13.892;2023-03-11T05:10:33;50267.34;;;-142.97;30.18
8451;BME280;4262;50.980;13.892;2023-03-11T05:13:03;50275.16;;;-142.97;28.13
8451;BME280;4262;50.980;13.892;2023-03-11T05:15:34;50269.28;;;-142.97;28.91
8451;BME280;4262;50.980;13.892;2023-03-11T05:18:02;50279.03;;;-142.97;29.04
8451;BME280;4262;50.980;13.892;2023-03-11T05:20:33;50284.91;;;-142.97;28.89
8451;BME280;4262;50.980;13.892;2023-03-11T05:23:00;50298.53;;;-142.97;28.88
8451;BME280;4262;50.980;13.892;2023-03-11T05:25:29;50290.75;;;-142.97;28.07
8451;BME280;4262;50.980;13.892;2023-03-11T05:27:56;50286.84;;;-142.97;27.76
8451;BME280;4262;50.980;13.892;2023-03-11T05:30:25;50304.38;;;-142.97;28.62
8451;BME280;4262;50.980;13.892;2023-03-11T05:32:51;50292.69;;;-142.97;28.29
8451;BME280;4262;50.980;13.892;2023-03-11T05:35:19;50242.00;;;-142.97;29.50
8451;BME280;4262;50.980;13.892;2023-03-11T05:37:47;50257.59;;;-142.97;30.13
8451;BME280;4262;50.980;13.892;2023-03-11T05:40:16;50282.94;;;-142.97;28.68
8451;BME280;4262;50.980;13.892;2023-03-11T05:42:43;50265.41;;;-142.97;28.90
8451;BME280;4262;50.980;13.892;2023-03-11T05:45:12;50273.19;;;-142.97;28.10
8451;BME280;4262;50.980;13.892;2023-03-11T05:47:42;50279.03;;;-142.97;28.24
8451;BME280;4262;50.980;13.892;2023-03-11T05:50:13;50261.50;;;-142.97;28.64
8451;BME280;4262;50.980;13.892;2023-03-11T05:52:42;50275.16;;;-142.97;28.44
8451;BME280;4262;50.980;13.892;2023-03-11T05:55:11;50284.91;;;-142.97;29.77
8451;BME280;4262;50.980;13.892;2023-03-11T05:57:41;50302.44;;;-142.97;28.75
8451;BME280;4262;50.980;13.892;2023-03-11T06:00:10;50275.16;;;-142.97;28.15
8451;BME280;4262;50.980;13.892;2023-03-11T06:02:46;50269.28;;;-142.97;29.58
8451;BME280;4262;50.980;13.892;2023-03-11T06:05:17;50273.19;;;-142.97;28.27
8451;BME280;4262;50.980;13.892;2023-03-11T06:07:45;50275.16;;;-142.97;27.81
8451;BME280;4262;50.980;13.892;2023-03-11T06:10:15;50282.94;;;-142.97;28.32
8451;BME280;4262;50.980;13.892;2023-03-11T06:12:42;50327.78;;;-142.97;28.22
8451;BME280;4262;50.980;13.892;2023-03-11T06:15:19;50314.13;;;-142.97;27.19
8451;BME280;4262;50.980;13.892;2023-03-11T06:17:45;50284.91;;;-142.97;26.51
8451;BME280;4262;50.980;13.892;2023-03-11T06:20:12;50302.44;;;-142.97;27.35
8451;BME280;4262;50.980;13.892;2023-03-11T06:22:39;50282.94;;;-142.97;27.62
8451;BME280;4262;50.980;13.892;2023-03-11T06:25:08;50275.16;;;-142.97;27.89
8451;BME280;4262;50.980;13.892;2023-03-11T06:27:37;50290.75;;;-142.97;27.54
8451;BME280;4262;50.980;13.892;2023-03-11T06:30:06;50290.75;;;-142.97;27.64
8451;BME280;4262;50.980;13.892;2023-03-11T06:32:42;50294.63;;;-142.97;28.01
8451;BME280;4262;50.980;13.892;2023-03-11T06:35:09;50321.94;;;-142.97;27.45
8451;BME280;4262;50.980;13.892;2023-03-11T06:37:38;50290.75;;;-142.97;27.45
8451;BME280;4262;50.980;13.892;2023-03-11T06:40:08;50306.34;;;-142.97;29.32
8451;BME280;4262;50.980;13.892;2023-03-11T06:42:37;50321.94;;;-142.97;27.74
8451;BME280;4262;50.980;13.892;2023-03-11T06:45:07;50294.63;;;-142.97;28.39
8451;BME280;4262;50.980;13.892;2023-03-11T06:47:34;50298.53;;;-142.97;26.92
8451;BME280;4262;50.980;13.892;2023-03-11T06:50:04;50292.69;;;-142.97;27.30
8451;BME280;4262;50.980;13.892;2023-03-11T06:52:33;50288.78;;;-142.97;26.76
8451;BME280;4262;50.980;13.892;2023-03-11T06:55:00;50310.25;;;-142.97;27.14
8451;BME280;4262;50.980;13.892;2023-03-11T06:57:30;50275.16;;;-142.97;27.55
8451;BME280;4262;50.980;13.892;2023-03-11T07:00:01;50300.50;;;-142.97;28.75
8451;BME280;4262;50.980;13.892;2023-03-11T07:02:33;50316.09;;;-142.97;27.84
8451;BME280;4262;50.980;13.892;2023-03-11T07:05:00;50279.03;;;-142.97;27.31
8451;BME280;4262;50.980;13.892;2023-03-11T07:07:27;50277.09;;;-142.97;28.25
8451;BME280;4262;50.980;13.892;2023-03-11T07:09:55;50259.56;;;-142.97;27.34
8451;BME280;4262;50.980;13.892;2023-03-11T07:12:23;50281.00;;;-142.97;27.86
8451;BME280;4262;50.980;13.892;2023-03-11T07:14:53;50294.63;;;-142.97;27.49
8451;BME280;4262;50.980;13.892;2023-03-11T07:17:22;50251.75;;;-142.97;29.05
8451;BME280;4262;50.980;13.892;2023-03-11T07:19:51;50314.13;;;-142.97;28.90
8451;BME280;4262;50.980;13.892;2023-03-11T07:22:18;50314.13;;;-142.97;27.19
8451;BME280;4262;50.980;13.892;2023-03-11T07:24:45;50282.94;;;-142.97;26.40
8451;BME280;4262;50.980;13.892;2023-03-11T07:27:12;50277.09;;;-142.97;27.72
8451;BME280;4262;50.980;13.892;2023-03-11T07:29:40;50294.63;;;-142.97;26.25
8451;BME280;4262;50.980;13.892;2023-03-11T07:32:07;50323.88;;;-142.97;26.92
8451;BME280;4262;50.980;13.892;2023-03-11T07:34:35;50306.34;;;-142.97;26.93
8451;BME280;4262;50.980;13.892;2023-03-11T07:37:02;50329.72;;;-142.97;25.94
8451;BME280;4262;50.980;13.892;2023-03-11T07:39:29;50288.78;;;-142.97;25.93
8451;BME280;4262;50.980;13.892;2023-03-11T07:41:55;50298.53;;;-142.97;26.77
8451;BME280;4262;50.980;13.892;2023-03-11T07:44:32;50290.75;;;-142.97;26.49
8451;BME280;4262;50.980;13.892;2023-03-11T07:47:01;50296.59;;;-142.97;25.38
8451;BME280;4262;50.980;13.892;2023-03-11T07:49:27;50304.38;;;-142.97;24.68
8451;BME280;4262;50.980;13.892;2023-03-11T07:51:55;50320.00;;;-142.97;25.71
8451;BME280;4262;50.980;13.892;2023-03-11T07:54:22;50290.75;;;-142.97;25.16
8451;BME280;4262;50.980;13.892;2023-03-11T07:56:49;50247.84;;;-142.97;24.98
8451;BME280;4262;50.980;13.892;2023-03-11T07:59:15;50310.25;;;-142.97;25.89
8451;BME280;4262;50.980;13.892;2023-03-11T08:01:42;50296.59;;;-142.97;28.63
8451;BME280;4262;50.980;13.892;2023-03-11T08:04:12;50236.16;;;-142.97;27.68
8451;BME280;4262;50.980;13.892;2023-03-11T08:06:42;50281.00;;;-142.97;29.79
8451;BME280;4262;50.980;13.892;2023-03-11T08:09:11;50249.81;;;-142.97;30.49
8451;BME280;4262;50.980;13.892;2023-03-11T08:11:38;50259.56;;;-142.97;28.94
8451;BME280;4262;50.980;13.892;2023-03-11T08:14:05;50271.25;;;-142.97;29.17
8451;BME280;4262;50.980;13.892;2023-03-11T08:16:32;50302.44;;;-142.97;29.71
8451;BME280;4262;50.980;13.892;2023-03-11T08:18:59;50277.09;;;-142.97;28.82
8451;BME280;4262;50.980;13.892;2023-03-11T08:21:28;50267.34;;;-142.97;28.59
8451;BME280;4262;50.980;13.892;2023-03-11T08:23:57;50282.94;;;-142.97;27.30
8451;BME280;4262;50.980;13.892;2023-03-11T08:26:25;50265.41;;;-142.97;28.03
8451;BME280;4262;50.980;13.892;2023-03-11T08:28:53;50279.03;;;-142.97;28.10
8451;BME280;4262;50.980;13.892;2023-03-11T08:31:22;50247.84;;;-142.97;28.13
8451;BME280;4262;50.980;13.892;2023-03-11T08:33:51;50273.19;;;-142.97;28.38
8451;BME280;4262;50.980;13.892;2023-03-11T08:36:20;50296.59;;;-142.97;27.27
8451;BME280;4262;50.980;13.892;2023-03-11T08:38:47;50290.75;;;-142.97;27.08
8451;BME280;4262;50.980;13.892;2023-03-11T08:41:15;50292.69;;;-142.97;27.44
8451;BME280;4262;50.980;13.892;2023-03-11T08:43:44;50292.69;;;-142.97;29.21
8451;BME280;4262;50.980;13.892;2023-03-11T08:46:14;50282.94;;;-142.97;28.38
8451;BME280;4262;50.980;13.892;2023-03-11T08:48:43;50271.25;;;-142.97;29.28
8451;BME280;4262;50.980;13.892;2023-03-11T08:51:10;50263.44;;;-142.97;28.91
8451;BME280;4262;50.980;13.892;2023-03-11T08:53:38;50271.25;;;-142.97;30.16
8451;BME280;4262;50.980;13.892;2023-03-11T08:56:06;50310.25;;;-142.97;29.50
8451;BME280;4262;50.980;13.892;2023-03-11T08:58:33;50284.91;;;-142.97;28.92
8451;BME280;4262;50.980;13.892;2023-03-11T09:01:03;50298.53;;;-142.97;29.19
8451;BME280;4262;50.980;13.892;2023-03-11T09:03:30;50279.03;;;-142.97;28.66
8451;BME280;4262;50.980;13.892;2023-03-11T09:05:58;50277.09;;;-142.97;30.15
8451;BME280;4262;50.980;13.892;2023-03-11T09:08:26;50253.69;;;-142.97;28.52
8451;BME280;4262;50.980;13.892;2023-03-11T09:10:54;50253.69;;;-142.97;28.97
8451;BME280;4262;50.980;13.892;2023-03-11T09:13:22;50234.19;;;-142.97;29.21
8451;BME280;4262;50.980;13.892;2023-03-11T09:15:49;50284.91;;;-142.97;28.26
8451;BME280;4262;50.980;13.892;2023-03-11T09:18:18;50249.81;;;-142.97;28.70
8451;BME280;4262;50.980;13.892;2023-03-11T09:20:45;50292.69;;;-142.97;28.50
8451;BME280;4262;50.980;13.892;2023-03-11T09:23:14;50279.03;;;-142.97;30.04
8451;BME280;4262;50.980;13.892;2023-03-11T09:25:42;50296.59;;;-142.97;29.23
8451;BME280;4262;50.980;13.892;2023-03-11T09:28:08;50294.63;;;-142.97;29.30
8451;BME280;4262;50.980;13.892;2023-03-11T09:30:35;50263.44;;;-142.97;28.63
8451;BME280;4262;50.980;13.892;2023-03-11T09:33:02;50279.03;;;-142.97;29.11
8451;BME280;4262;50.980;13.892;2023-03-11T09:35:31;50259.56;;;-142.97;29.58
8451;BME280;4262;50.980;13.892;2023-03-11T09:37:58;50282.94;;;-142.97;29.41
8451;BME280;4262;50.980;13.892;2023-03-11T09:40:26;50290.75;;;-142.97;29.41
8451;BME280;4262;50.980;13.892;2023-03-11T09:43:06;50277.09;;;-142.97;29.28
8451;BME280;4262;50.980;13.892;2023-03-11T09:45:39;50310.25;;;-142.97;30.96
8451;BME280;4262;50.980;13.892;2023-03-11T09:48:19;50277.09;;;-142.97;29.97
8451;BME280;4262;50.980;13.892;2023-03-11T09:50:55;50300.50;;;-142.97;31.49
8451;BME280;4262;50.980;13.892;2023-03-11T09:53:33;50292.69;;;-142.97;29.17
8451;BME280;4262;50.980;13.892;2023-03-11T09:56:05;50255.66;;;-142.97;29.50
8451;BME280;4262;50.980;13.892;2023-03-11T09:58:38;50269.28;;;-142.97;29.14
8451;BME280;4262;50.980;13.892;2023-03-11T10:01:15;50279.03;;;-142.97;29.29
8451;BME280;4262;50.980;13.892;2023-03-11T10:03:43;50286.84;;;-142.97;28.20
8451;BME280;4262;50.980;13.892;2023-03-11T10:06:15;50279.03;;;-142.97;30.46
8451;BME280;4262;50.980;13.892;2023-03-11T10:08:45;50273.19;;;-142.97;29.79
8451;BME280;4262;50.980;13.892;2023-03-11T10:11:28;50296.59;;;-142.97;29.47
8451;BME280;4262;50.980;13.892;2023-03-11T10:14:08;50275.16;;;-142.97;29.95
8451;BME280;4262;50.980;13.892;2023-03-11T10:16:44;50271.25;;;-142.97;28.83
8451;BME280;4262;50.980;13.892;2023-03-11T10:19:20;50298.53;;;-142.97;28.92
8451;BME280;4262;50.980;13.892;2023-03-11T10:21:59;50261.50;;;-142.97;30.05
8451;BME280;4262;50.980;13.892;2023-03-11T10:24:41;50257.59;;;-142.97;29.72
8451;BME280;4262;50.980;13.892;2023-03-11T10:27:16;50314.13;;;-142.97;27.86
8451;BME280;4262;50.980;13.892;2023-03-11T10:29:50;50263.44;;;-142.97;30.33
8451;BME280;4262;50.980;13.892;2023-03-11T10:32:26;50261.50;;;-142.97;28.60
8451;BME280;4262;50.980;13.892;2023-03-11T10:34:58;50259.56;;;-142.97;29.86
8451;BME280;4262;50.980;13.892;2023-03-11T10:37:32;50259.56;;;-142.97;28.57
8451;BME280;4262;50.980;13.892;2023-03-11T10:40:07;50300.50;;;-142.97;28.20
8451;BME280;4262;50.980;13.892;2023-03-11T10:42:39;50281.00;;;-142.97;29.00
8451;BME280;4262;50.980;13.892;2023-03-11T10:45:12;50298.53;;;-142.97;28.59
8451;BME280;4262;50.980;13.892;2023-03-11T10:47:39;50236.16;;;-142.97;29.03
8451;BME280;4262;50.980;13.892;2023-03-11T10:50:10;50263.44;;;-142.97;29.07
8451;BME280;4262;50.980;13.892;2023-03-11T10:53:03;50306.34;;;-142.97;28.12
8451;BME280;4262;50.980;13.892;2023-03-11T10:55:30;50281.00;;;-142.97;27.77
8451;BME280;4262;50.980;13.892;2023-03-11T10:58:04;50269.28;;;-142.97;26.99
8451;BME280;4262;50.980;13.892;2023-03-11T11:00:32;50296.59;;;-142.97;28.40
8451;BME280;4262;50.980;13.892;2023-03-11T11:02:59;50251.75;;;-142.97;28.49
8451;BME280;4262;50.980;13.892;2023-03-11T11:05:30;50296.59;;;-142.97;28.72
8451;BME280;4262;50.980;13.892;2023-03-11T11:08:05;50279.03;;;-142.97;28.23
8451;BME280;4262;50.980;13.892;2023-03-11T11:10:34;50234.19;;;-142.97;28.83
8451;BME280;4262;50.980;13.892;2023-03-11T11:13:16;50273.19;;;-142.97;28.26
8451;BME280;4262;50.980;13.892;2023-03-11T11:15:51;50286.84;;;-142.97;28.30
8451;BME280;4262;50.980;13.892;2023-03-11T11:18:21;50281.00;;;-142.97;27.45
8451;BME280;4262;50.980;13.892;2023-03-11T11:20:55;50271.25;;;-142.97;28.54
8451;BME280;4262;50.980;13.892;2023-03-11T11:23:30;50294.63;;;-142.97;29.76
8451;BME280;4262;50.980;13.892;2023-03-11T11:25:59;50286.84;;;-142.97;28.61
8451;BME280;4262;50.980;13.892;2023-03-11T11:28:30;50281.00;;;-142.97;28.58
8451;BME280;4262;50.980;13.892;2023-03-11T11:30:58;50275.16;;;-142.97;28.70
8451;BME280;4262;50.980;13.892;2023-03-11T11:33:28;50277.09;;;-142.97;29.01
8451;BME280;4262;50.980;13.892;2023-03-11T11:35:57;50263.44;;;-142.97;28.93
8451;BME280;4262;50.980;13.892;2023-03-11T11:38:28;50249.81;;;-142.97;28.84
8451;BME280;4262;50.980;13.892;2023-03-11T11:40:58;50282.94;;;-142.97;28.76
8451;BME280;4262;50.980;13.892;2023-03-11T11:43:43;50257.59;;;-142.97;27.88
8451;BME280;4262;50.980;13.892;2023-03-11T11:46:18;50279.03;;;-142.97;28.32
8451;BME280;4262;50.980;13.892;2023-03-11T11:48:53;50251.75;;;-142.97;27.31
8451;BME280;4262;50.980;13.892;2023-03-11T11:51:27;50193.25;;;-142.97;28.81
8451;BME280;4262;50.980;13.892;2023-03-11T11:54:00;50240.06;;;-142.97;27.33
8451;BME280;4262;50.980;13.892;2023-03-11T11:56:28;50243.94;;;-142.97;29.73
8451;BME280;4262;50.980;13.892;2023-03-11T11:58:55;50212.75;;;-142.97;28.12
8451;BME280;4262;50.980;13.892;2023-03-11T12:01:33;50245.91;;;-142.97;27.92
8451;BME280;4262;50.980;13.892;2023-03-11T12:04:21;50259.56;;;-142.97;26.97
8451;BME280;4262;50.980;13.892;2023-03-11T12:07:02;50275.16;;;-142.97;27.07
8451;BME280;4262;50.980;13.892;2023-03-11T12:09:34;50240.06;;;-142.97;27.46
8451;BME280;4262;50.980;13.892;2023-03-11T12:12:13;50238.09;;;-142.97;27.40
8451;BME280;4262;50.980;13.892;2023-03-11T12:14:47;50251.75;;;-142.97;27.16
8451;BME280;4262;50.980;13.892;2023-03-11T12:17:17;50277.09;;;-142.97;27.57
8451;BME280;4262;50.980;13.892;2023-03-11T12:19:52;50273.19;;;-142.97;27.62
8451;BME280;4262;50.980;13.892;2023-03-11T12:22:35;50232.25;;;-142.97;27.76
8451;BME280;4262;50.980;13.892;2023-03-11T12:25:19;50263.44;;;-142.97;26.81
8451;BME280;4262;50.980;13.892;2023-03-11T12:27:52;50290.75;;;-142.97;27.62
8451;BME280;4262;50.980;13.892;2023-03-11T12:30:23;50314.13;;;-142.97;27.04
8451;BME280;4262;50.980;13.892;2023-03-11T12:32:55;50277.09;;;-142.97;26.74
8451;BME280;4262;50.980;13.892;2023-03-11T12:35:26;50282.94;;;-142.97;26.68
8451;BME280;4262;50.980;13.892;2023-03-11T12:38:06;50308.28;;;-142.97;26.70
8451;BME280;4262;50.980;13.892;2023-03-11T12:40:57;50269.28;;;-142.97;27.88
8451;BME280;4262;50.980;13.892;2023-03-11T12:47:19;50304.38;;;-142.97;26.99
8451;BME280;4262;50.980;13.892;2023-03-11T12:49:48;50306.34;;;-142.97;27.04
8451;BME280;4262;50.980;13.892;2023-03-11T12:52:23;50263.44;;;-142.97;27.15
8451;BME280;4262;50.980;13.892;2023-03-11T12:55:28;50275.16;;;-142.97;27.06
8451;BME280;4262;50.980;13.892;2023-03-11T13:01:02;50300.50;;;-142.97;26.17
8451;BME280;4262;50.980;13.892;2023-03-11T13:03:43;50321.94;;;-142.97;25.59
8451;BME280;4262;50.980;13.892;2023-03-11T13:09:18;50296.59;;;-142.97;26.32
8451;BME280;4262;50.980;13.892;2023-03-11T13:11:46;50294.63;;;-142.97;26.22
8451;BME280;4262;50.980;13.892;2023-03-11T13:14:25;50294.63;;;-142.97;26.35
8451;BME280;4262;50.980;13.892;2023-03-11T13:16:56;50286.84;;;-142.97;26.49
8451;BME280;4262;50.980;13.892;2023-03-11T13:19:48;50271.25;;;-142.97;26.34
8451;BME280;4262;50.980;13.892;2023-03-11T13:22:42;50296.59;;;-142.97;26.92
8451;BME280;4262;50.980;13.892;2023-03-11T13:25:31;50300.50;;;-142.97;27.56
8451;BME280;4262;50.980;13.892;2023-03-11T13:28:13;50284.91;;;-142.97;27.67
8451;BME280;4262;50.980;13.892;2023-03-11T13:30:50;50277.09;;;-142.97;26.74
8451;BME280;4262;50.980;13.892;2023-03-11T13:33:30;50288.78;;;-142.97;26.08
8451;BME280;4262;50.980;13.892;2023-03-11T13:36:09;50123.06;;;-142.97;26.40
8451;BME280;4262;50.980;13.892;2023-03-11T13:39:01;50282.94;;;-142.97;26.24
8451;BME280;4262;50.980;13.892;2023-03-11T13:41:36;50279.03;;;-142.97;26.35
8451;BME280;4262;50.980;13.892;2023-03-11T13:44:13;50323.88;;;-142.97;25.86
8451;BME280;4262;50.980;13.892;2023-03-11T13:46:42;50273.19;;;-142.97;26.65
8451;BME280;4262;50.980;13.892;2023-03-11T13:49:24;50286.84;;;-142.97;27.23
8451;BME280;4262;50.980;13.892;2023-03-11T13:51:53;50257.59;;;-142.97;27.70
8451;BME280;4262;50.980;13.892;2023-03-11T13:54:43;50255.66;;;-142.97;27.85
8451;BME280;4262;50.980;13.892;2023-03-11T13:57:22;50115.28;;;-142.97;27.38
8451;BME280;4262;50.980;13.892;2023-03-11T13:59:51;50290.75;;;-142.97;27.78
8451;BME280;4262;50.980;13.892;2023-03-11T14:02:23;50286.84;;;-142.97;27.49
8451;BME280;4262;50.980;13.892;2023-03-11T14:04:56;50288.78;;;-142.97;26.83
8451;BME280;4262;50.980;13.892;2023-03-11T14:07:26;50296.59;;;-142.97;26.99
8451;BME280;4262;50.980;13.892;2023-03-11T14:10:14;50271.25;;;-142.97;27.03
8451;BME280;4262;50.980;13.892;2023-03-11T14:12:43;50310.25;;;-142.97;27.79
8451;BME280;4262;50.980;13.892;2023-03-11T14:15:13;50302.44;;;-142.97;27.86
8451;BME280;4262;50.980;13.892;2023-03-11T14:17:42;50327.78;;;-142.97;26.94
8451;BME280;4262;50.980;13.892;2023-03-11T14:20:14;50288.78;;;-142.97;25.87
8451;BME280;4262;50.980;13.892;2023-03-11T14:22:44;50308.28;;;-142.97;25.68
8451;BME280;4262;50.980;13.892;2023-03-11T14:25:17;50312.19;;;-142.97;26.46
8451;BME280;4262;50.980;13.892;2023-03-11T14:27:50;50323.88;;;-142.97;26.15
8451;BME280;4262;50.980;13.892;2023-03-11T14:30:23;50275.16;;;-142.97;26.02
8451;BME280;4262;50.980;13.892;2023-03-11T14:33:00;50294.63;;;-142.97;26.32
8451;BME280;4262;50.980;13.892;2023-03-11T14:35:30;50288.78;;;-142.97;26.95
8451;BME280;4262;50.980;13.892;2023-03-11T14:37:58;50288.78;;;-142.97;26.49
8451;BME280;4262;50.980;13.892;2023-03-11T14:40:27;50253.69;;;-142.97;27.04
8451;BME280;4262;50.980;13.892;2023-03-11T14:42:58;50282.94;;;-142.97;27.23
8451;BME280;4262;50.980;13.892;2023-03-11T14:45:28;50261.50;;;-142.97;27.02
8451;BME280;4262;50.980;13.892;2023-03-11T14:47:58;50271.25;;;-142.97;27.04
8451;BME280;4262;50.980;13.892;2023-03-11T14:50:31;50271.25;;;-142.97;26.22
8451;BME280;4262;50.980;13.892;2023-03-11T14:53:02;50154.28;;;-142.97;26.23
8451;BME280;4262;50.980;13.892;2023-03-11T14:55:32;50277.09;;;-142.97;26.46
8451;BME280;4262;50.980;13.892;2023-03-11T14:58:02;50298.53;;;-142.97;26.14
8451;BME280;4262;50.980;13.892;2023-03-11T15:00:34;50292.69;;;-142.97;26.24
8451;BME280;4262;50.980;13.892;2023-03-11T15:03:07;50277.09;;;-142.97;25.96
8451;BME280;4262;50.980;13.892;2023-03-11T15:05:42;50298.53;;;-142.97;26.07
8451;BME280;4262;50.980;13.892;2023-03-11T15:08:11;50265.41;;;-142.97;26.81
8451;BME280;4262;50.980;13.892;2023-03-11T15:10:38;50306.34;;;-142.97;25.94
8451;BME280;4262;50.980;13.892;2023-03-11T15:13:10;50298.53;;;-142.97;26.29
8451;BME280;4262;50.980;13.892;2023-03-11T15:15:39;50284.91;;;-142.97;26.95
8451;BME280;4262;50.980;13.892;2023-03-11T15:18:21;50275.16;;;-142.97;26.48
8451;BME280;4262;50.980;13.892;2023-03-11T15:21:03;50329.72;;;-142.97;26.44
8451;BME280;4262;50.980;13.892;2023-03-11T15:23:33;50302.44;;;-142.97;26.78
8451;BME280;4262;50.980;13.892;2023-03-11T15:26:00;50290.75;;;-142.97;26.61
8451;BME280;4262;50.980;13.892;2023-03-11T15:28:30;50290.75;;;-142.97;26.28
8451;BME280;4262;50.980;13.892;2023-03-11T15:31:14;50331.69;;;-142.97;26.73
8451;BME280;4262;50.980;13.892;2023-03-11T15:33:42;50284.91;;;-142.97;26.88
8451;BME280;4262;50.980;13.892;2023-03-11T15:36:30;50308.28;;;-142.97;26.65
8451;BME280;4262;50.980;13.892;2023-03-11T15:39:15;50298.53;;;-142.97;26.24
8451;BME280;4262;50.980;13.892;2023-03-11T15:41:44;50284.91;;;-142.97;26.07
8451;BME280;4262;50.980;13.892;2023-03-11T15:44:27;50345.34;;;-142.97;25.98
8451;BME280;4262;50.980;13.892;2023-03-11T15:46:55;50294.63;;;-142.97;26.05
8451;BME280;4262;50.980;13.892;2023-03-11T15:49:24;50298.53;;;-142.97;25.46
8451;BME280;4262;50.980;13.892;2023-03-11T15:51:57;50292.69;;;-142.97;25.67
8451;BME280;4262;50.980;13.892;2023-03-11T15:54:23;50298.53;;;-142.97;24.82
8451;BME280;4262;50.980;13.892;2023-03-11T15:56:50;50286.84;;;-142.97;25.87
8451;BME280;4262;50.980;13.892;2023-03-11T15:59:17;50298.53;;;-142.97;25.10
8451;BME280;4262;50.980;13.892;2023-03-11T16:01:43;50290.75;;;-142.97;25.25
8451;BME280;4262;50.980;13.892;2023-03-11T16:04:13;50339.47;;;-142.97;26.39
8451;BME280;4262;50.980;13.892;2023-03-11T16:06:40;50290.75;;;-142.97;25.08
8451;BME280;4262;50.980;13.892;2023-03-11T16:09:09;50271.25;;;-142.97;26.58
8451;BME280;4262;50.980;13.892;2023-03-11T16:11:37;50300.50;;;-142.97;25.80
8451;BME280;4262;50.980;13.892;2023-03-11T16:14:06;50281.00;;;-142.97;26.00
8451;BME280;4262;50.980;13.892;2023-03-11T16:16:35;50304.38;;;-142.97;26.18
8451;BME280;4262;50.980;13.892;2023-03-11T16:19:02;50273.19;;;-142.97;26.56
8451;BME280;4262;50.980;13.892;2023-03-11T16:21:49;50323.88;;;-142.97;26.29
8451;BME280;4262;50.980;13.892;2023-03-11T16:24:20;50321.94;;;-142.97;26.50
8451;BME280;4262;50.980;13.892;2023-03-11T16:26:48;50331.69;;;-142.97;26.77
8451;BME280;4262;50.980;13.892;2023-03-11T16:29:17;50275.16;;;-142.97;26.49
8451;BME280;4262;50.980;13.892;2023-03-11T16:31:43;50310.25;;;-142.97;26.97
8451;BME280;4262;50.980;13.892;2023-03-11T16:34:10;50298.53;;;-142.97;27.16
8451;BME280;4262;50.980;13.892;2023-03-11T16:36:36;50298.53;;;-142.97;26.79
8451;BME280;4262;50.980;13.892;2023-03-11T16:39:03;50279.03;;;-142.97;27.78
8451;BME280;4262;50.980;13.892;2023-03-11T16:41:39;50279.03;;;-142.97;27.66
8451;BME280;4262;50.980;13.892;2023-03-11T16:44:07;50329.72;;;-142.97;27.47
8451;BME280;4262;50.980;13.892;2023-03-11T16:46:34;50294.63;;;-142.97;27.26
8451;BME280;4262;50.980;13.892;2023-03-11T16:49:01;50325.84;;;-142.97;27.93
8451;BME280;4262;50.980;13.892;2023-03-11T16:51:29;50298.53;;;-142.97;27.81
8451;BME280;4262;50.980;13.892;2023-03-11T16:53:57;50279.03;;;-142.97;28.34
8451;BME280;4262;50.980;13.892;2023-03-11T16:56:24;50298.53;;;-142.97;26.88
8451;BME280;4262;50.980;13.892;2023-03-11T16:58:52;50273.19;;;-142.97;26.70
8451;BME280;4262;50.980;13.892;2023-03-11T17:01:20;50294.63;;;-142.97;27.85
8451;BME280;4262;50.980;13.892;2023-03-11T17:03:48;50286.84;;;-142.97;28.08
8451;BME280;4262;50.980;13.892;2023-03-11T17:06:17;50298.53;;;-142.97;28.02
8451;BME280;4262;50.980;13.892;2023-03-11T17:08:44;50306.34;;;-142.97;27.55
8451;BME280;4262;50.980;13.892;2023-03-11T17:11:15;50277.09;;;-142.97;27.16
8451;BME280;4262;50.980;13.892;2023-03-11T17:13:43;50312.19;;;-142.97;26.49
8451;BME280;4262;50.980;13.892;2023-03-11T17:16:12;50304.38;;;-142.97;26.77
8451;BME280;4262;50.980;13.892;2023-03-11T17:18:39;50323.88;;;-142.97;27.63
8451;BME280;4262;50.980;13.892;2023-03-11T17:21:09;50288.78;;;-142.97;27.11
8451;BME280;4262;50.980;13.892;2023-03-11T17:23:36;50312.19;;;-142.97;27.60
8451;BME280;4262;50.980;13.892;2023-03-11T17:26:07;50282.94;;;-142.97;27.40
8451;BME280;4262;50.980;13.892;2023-03-11T17:28:34;50271.25;;;-142.97;27.41
8451;BME280;4262;50.980;13.892;2023-03-11T17:31:01;50300.50;;;-142.97;27.09
8451;BME280;4262;50.980;13.892;2023-03-11T17:33:33;50316.09;;;-142.97;27.30
8451;BME280;4262;50.980;13.892;2023-03-11T17:36:00;50325.84;;;-142.97;27.64
8451;BME280;4262;50.980;13.892;2023-03-11T17:38:27;50310.25;;;-142.97;27.35
8451;BME280;4262;50.980;13.892;2023-03-11T17:40:55;50316.09;;;-142.97;26.88
8451;BME280;4262;50.980;13.892;2023-03-11T17:43:21;50316.09;;;-142.97;27.02
8451;BME280;4262;50.980;13.892;2023-03-11T17:45:48;50281.00;;;-142.97;27.31
8451;BME280;4262;50.980;13.892;2023-03-11T17:48:15;50327.78;;;-142.97;27.47
8451;BME280;4262;50.980;13.892;2023-03-11T17:50:43;50337.53;;;-142.97;26.87
8451;BME280;4262;50.980;13.892;2023-03-11T17:53:11;50325.84;;;-142.97;27.23
8451;BME280;4262;50.980;13.892;2023-03-11T17:55:39;50327.78;;;-142.97;27.42
8451;BME280;4262;50.980;13.892;2023-03-11T17:58:07;50298.53;;;-142.97;28.15
8451;BME280;4262;50.980;13.892;2023-03-11T18:00:34;50335.59;;;-142.97;27.77
8451;BME280;4262;50.980;13.892;2023-03-11T18:03:00;50314.13;;;-142.97;27.17
8451;BME280;4262;50.980;13.892;2023-03-11T18:05:27;50294.63;;;-142.97;27.13
8451;BME280;4262;50.980;13.892;2023-03-11T18:07:56;50339.47;;;-142.97;27.68
8451;BME280;4262;50.980;13.892;2023-03-11T18:10:23;50320.00;;;-142.97;27.15
8451;BME280;4262;50.980;13.892;2023-03-11T18:12:49;50312.19;;;-142.97;27.26
8451;BME280;4262;50.980;13.892;2023-03-11T18:15:16;50308.28;;;-142.97;27.52
8451;BME280;4262;50.980;13.892;2023-03-11T18:17:44;50304.38;;;-142.97;26.93
8451;BME280;4262;50.980;13.892;2023-03-11T18:20:12;50292.69;;;-142.97;26.34
8451;BME280;4262;50.980;13.892;2023-03-11T18:22:39;50271.25;;;-142.97;25.91